createdAt,value
2022-12-18T00:01:22.809Z,69.51
2022-12-18T00:03:55.940Z,69.35
2022-12-18T00:06:30.485Z,69.35
2022-12-18T00:09:04.034Z,69.31
2022-12-18T00:11:35.672Z,69.31
2022-12-18T00:14:07.725Z,69.21
2022-12-18T00:16:39.751Z,69.15
2022-12-18T00:19:13.418Z,69.28
2022-12-18T00:21:45.966Z,69.16
2022-12-18T00:24:17.568Z,69.35
2022-12-18T00:26:49.389Z,69.31
2022-12-18T00:29:20.992Z,69.39
2022-12-18T00:31:52.841Z,69.32
2022-12-18T00:34:24.794Z,69.35
2022-12-18T00:36:56.523Z,69.23
2022-12-18T00:39:28.249Z,69.29
2022-12-18T00:42:32.431Z,69.35
2022-12-18T00:45:10.652Z,69.28
2022-12-18T00:47:44.708Z,69.24
2022-12-18T00:50:16.376Z,69.22
2022-12-18T00:52:48.233Z,69.07
2022-12-18T00:55:20.453Z,68.99
2022-12-18T00:57:55.144Z,69.28
2022-12-18T01:00:27.160Z,69.23
2022-12-18T01:02:58.981Z,69.20
2022-12-18T01:05:32.062Z,69.23
2022-12-18T01:08:04.032Z,69.37
2022-12-18T01:10:35.735Z,69.25
2022-12-18T01:13:07.558Z,69.32
2022-12-18T01:15:39.279Z,69.26
2022-12-18T01:18:11.103Z,69.32
2022-12-18T01:20:42.961Z,69.08
2022-12-18T01:23:14.638Z,69.33
2022-12-18T01:25:46.222Z,69.35
2022-12-18T01:28:17.876Z,69.45
2022-12-18T01:30:49.583Z,69.37
2022-12-18T01:33:21.419Z,69.26
2022-12-18T01:35:53.046Z,69.55
2022-12-18T01:38:24.723Z,69.44
2022-12-18T01:41:02.212Z,69.69
2022-12-18T01:43:50.356Z,69.48
2022-12-18T01:46:24.328Z,69.58
2022-12-18T01:49:00.179Z,69.70
2022-12-18T01:51:34.332Z,69.39
2022-12-18T01:54:06.109Z,69.48
2022-12-18T01:56:39.673Z,69.31
2022-12-18T01:59:15.200Z,69.38
2022-12-18T02:01:48.331Z,69.38
2022-12-18T02:04:26.925Z,69.26
2022-12-18T02:07:12.013Z,69.41
2022-12-18T02:09:51.413Z,69.35
2022-12-18T02:12:25.946Z,69.40
2022-12-18T02:15:10.777Z,69.31
2022-12-18T02:17:49.190Z,69.33
2022-12-18T02:20:26.845Z,69.32
2022-12-18T02:23:14.468Z,69.38
2022-12-18T02:26:22.113Z,69.44
2022-12-18T02:28:59.308Z,69.35
2022-12-18T02:31:52.073Z,69.28
2022-12-18T02:34:36.772Z,69.36
2022-12-18T02:37:12.741Z,69.34
2022-12-18T02:39:47.818Z,69.32
2022-12-18T02:42:22.828Z,69.30
2022-12-18T02:45:15.379Z,69.30
2022-12-18T02:48:17.086Z,69.19
2022-12-18T02:50:59.043Z,69.41
2022-12-18T02:53:41.823Z,69.36
2022-12-18T02:56:20.846Z,69.44
2022-12-18T02:59:51.678Z,69.60
2022-12-18T03:02:27.515Z,69.59
2022-12-18T03:05:14.962Z,69.63
2022-12-18T03:07:54.172Z,69.75
2022-12-18T03:10:44.690Z,69.68
2022-12-18T03:13:22.425Z,69.51
2022-12-18T03:16:03.277Z,69.70
2022-12-18T03:19:00.151Z,69.65
2022-12-18T03:21:53.462Z,69.84
2022-12-18T03:24:34.277Z,69.65
2022-12-18T03:27:36.252Z,69.67
2022-12-18T03:30:11.225Z,69.90
2022-12-18T03:32:49.139Z,69.89
2022-12-18T03:35:27.253Z,69.66
2022-12-18T03:38:01.662Z,69.60
2022-12-18T03:40:59.149Z,69.68
2022-12-18T03:43:57.586Z,69.47
2022-12-18T03:46:42.504Z,69.89
2022-12-18T03:49:19.865Z,69.93
2022-12-18T03:51:56.532Z,69.77
2022-12-18T03:54:30.537Z,69.59
2022-12-18T03:57:09.618Z,69.67
2022-12-18T03:59:42.404Z,69.67
2022-12-18T04:02:17.631Z,69.86
2022-12-18T04:04:52.411Z,69.74
2022-12-18T04:07:24.507Z,69.78
2022-12-18T04:09:59.838Z,69.90
2022-12-18T04:12:33.229Z,70.02
2022-12-18T04:15:08.341Z,69.77
2022-12-18T04:18:00.748Z,69.80
2022-12-18T04:20:37.584Z,69.96
2022-12-18T04:23:13.758Z,69.94
2022-12-18T04:25:45.702Z,69.88
2022-12-18T04:28:17.284Z,69.94
2022-12-18T04:30:56.788Z,70.01
2022-12-18T04:33:28.541Z,69.89
2022-12-18T04:36:00.316Z,70.11
2022-12-18T04:38:32.095Z,69.92
2022-12-18T04:41:03.800Z,70.11
2022-12-18T04:43:39.175Z,70.09
2022-12-18T04:46:14.713Z,70.09
2022-12-18T04:48:49.870Z,70.21
2022-12-18T04:51:26.371Z,70.09
2022-12-18T04:53:58.733Z,70.18
2022-12-18T04:56:33.347Z,70.08
2022-12-18T04:59:25.846Z,70.17
2022-12-18T05:02:24.510Z,70.24
2022-12-18T05:04:56.456Z,70.37
2022-12-18T05:07:28.586Z,70.30
2022-12-18T05:10:00.438Z,70.16
2022-12-18T05:13:18.498Z,70.19
2022-12-18T05:15:55.337Z,70.11
2022-12-18T05:18:38.696Z,70.25
2022-12-18T05:21:11.164Z,70.09
2022-12-18T05:23:43.625Z,69.96
2022-12-18T05:26:24.157Z,69.98
2022-12-18T05:28:55.794Z,70.06
2022-12-18T05:31:35.980Z,70.02
2022-12-18T05:34:10.877Z,70.06
2022-12-18T05:36:43.396Z,70.03
2022-12-18T05:39:16.571Z,70.16
2022-12-18T05:42:00.892Z,70.08
2022-12-18T05:44:32.598Z,69.96
2022-12-18T05:47:05.359Z,69.98
2022-12-18T05:49:36.977Z,70.10
2022-12-18T05:52:29.533Z,69.87
2022-12-18T05:55:03.497Z,70.25
2022-12-18T05:57:35.386Z,70.17
2022-12-18T06:00:25.683Z,70.27
2022-12-18T06:02:57.447Z,70.25
2022-12-18T06:05:38.705Z,70.18
2022-12-18T06:08:11.851Z,70.22
2022-12-18T06:10:44.645Z,70.31
2022-12-18T06:13:16.465Z,70.22
2022-12-18T06:15:53.280Z,70.08
2022-12-18T06:18:27.427Z,70.14
2022-12-18T06:21:03.861Z,70.24
2022-12-18T06:23:42.153Z,70.10
2022-12-18T06:26:16.199Z,70.14
2022-12-18T06:28:47.940Z,70.12
2022-12-18T06:31:20.221Z,70.25
2022-12-18T06:34:14.095Z,70.19
2022-12-18T06:36:44.177Z,70.24
2022-12-18T06:39:15.909Z,70.19
2022-12-18T06:41:47.591Z,70.27
2022-12-18T06:44:19.588Z,70.22
2022-12-18T06:46:51.413Z,70.02
2022-12-18T06:49:43.413Z,70.18
2022-12-18T06:52:16.034Z,70.15
2022-12-18T06:54:50.274Z,70.04
2022-12-18T06:57:22.611Z,70.13
2022-12-18T07:00:01.793Z,69.94
2022-12-18T07:02:34.632Z,69.72
2022-12-18T07:05:11.208Z,69.90
2022-12-18T07:07:44.126Z,70.05
2022-12-18T07:10:18.810Z,70.12
2022-12-18T07:12:50.850Z,69.86
2022-12-18T07:15:43.613Z,69.90
2022-12-18T07:18:38.689Z,69.73
2022-12-18T07:21:08.120Z,69.67
2022-12-18T07:23:40.289Z,69.80
2022-12-18T07:26:33.157Z,69.51
2022-12-18T07:29:06.561Z,69.41
2022-12-18T07:31:36.676Z,69.77
2022-12-18T07:34:11.715Z,69.45
2022-12-18T07:36:48.185Z,69.83
2022-12-18T07:39:22.123Z,69.59
2022-12-18T07:42:07.621Z,69.42
2022-12-18T07:44:39.811Z,69.51
2022-12-18T07:47:12.303Z,69.00
2022-12-18T07:49:44.313Z,69.09
2022-12-18T07:52:17.735Z,69.18
2022-12-18T07:54:51.415Z,69.19
2022-12-18T07:57:48.934Z,69.09
2022-12-18T08:00:18.161Z,69.03
2022-12-18T08:02:50.217Z,69.00
2022-12-18T08:05:23.361Z,68.88
2022-12-18T08:07:57.039Z,68.99
2022-12-18T08:10:28.866Z,69.04
2022-12-18T08:13:04.894Z,68.98
2022-12-18T08:15:37.100Z,68.94
2022-12-18T08:18:13.887Z,68.85
2022-12-18T08:20:49.255Z,68.72
2022-12-18T08:23:20.877Z,68.64
2022-12-18T08:25:52.758Z,68.63
2022-12-18T08:28:24.403Z,68.73
2022-12-18T08:30:56.529Z,68.65
2022-12-18T08:33:29.322Z,68.47
2022-12-18T08:36:02.840Z,68.36
2022-12-18T08:38:33.723Z,68.23
2022-12-18T08:41:09.864Z,68.05
2022-12-18T08:44:00.780Z,68.00
2022-12-18T08:46:39.356Z,67.83
2022-12-18T08:49:12.130Z,67.82
2022-12-18T08:51:43.861Z,67.65
2022-12-18T08:54:16.537Z,67.75
2022-12-18T08:56:48.299Z,67.46
2022-12-18T08:59:20.829Z,67.40
2022-12-18T09:01:52.714Z,67.20
2022-12-18T09:04:24.773Z,67.17
2022-12-18T09:06:58.784Z,66.99
2022-12-18T09:09:30.501Z,66.81
2022-12-18T09:12:02.334Z,66.65
2022-12-18T09:14:33.998Z,66.60
2022-12-18T09:17:06.004Z,66.55
2022-12-18T09:19:37.670Z,66.77
2022-12-18T09:22:10.598Z,66.79
2022-12-18T09:24:42.392Z,66.78
2022-12-18T09:27:14.003Z,66.83
2022-12-18T09:29:46.057Z,66.72
2022-12-18T09:32:22.330Z,66.70
2022-12-18T09:34:55.000Z,66.91
2022-12-18T09:37:27.713Z,66.87
2022-12-18T09:39:59.482Z,66.72
2022-12-18T09:42:31.611Z,66.64
2022-12-18T09:45:05.456Z,66.80
2022-12-18T09:47:43.351Z,66.83
2022-12-18T09:50:41.541Z,66.87
2022-12-18T09:53:18.185Z,66.61
2022-12-18T09:55:53.375Z,66.54
2022-12-18T09:58:30.911Z,66.59
2022-12-18T10:01:14.086Z,66.46
2022-12-18T10:03:45.890Z,66.45
2022-12-18T10:06:31.844Z,66.38
2022-12-18T10:09:08.425Z,66.31
2022-12-18T10:11:51.027Z,66.15
2022-12-18T10:14:32.639Z,66.08
2022-12-18T10:17:12.587Z,65.77
2022-12-18T10:19:52.683Z,65.53
2022-12-18T10:22:37.039Z,65.35
2022-12-18T10:25:21.288Z,65.26
2022-12-18T10:27:58.716Z,64.86
2022-12-18T10:30:30.366Z,64.78
2022-12-18T10:33:07.736Z,65.04
2022-12-18T10:35:43.104Z,65.15
2022-12-18T10:38:29.007Z,65.06
2022-12-18T10:41:02.601Z,64.75
2022-12-18T10:43:33.702Z,64.53
2022-12-18T10:46:18.679Z,64.28
2022-12-18T10:48:57.975Z,64.11
2022-12-18T10:51:35.548Z,63.96
2022-12-18T10:54:15.581Z,64.05
2022-12-18T10:56:47.893Z,63.57
2022-12-18T10:59:20.388Z,63.64
2022-12-18T11:01:55.896Z,63.73
2022-12-18T11:04:30.129Z,63.63
2022-12-18T11:07:05.060Z,63.61
2022-12-18T11:09:38.611Z,63.28
2022-12-18T11:12:19.823Z,63.24
2022-12-18T11:14:53.524Z,63.07
2022-12-18T11:17:30.441Z,63.21
2022-12-18T11:20:04.508Z,63.35
2022-12-18T11:22:40.833Z,63.47
2022-12-18T11:25:36.680Z,63.34
2022-12-18T11:28:27.499Z,63.49
2022-12-18T11:31:14.542Z,63.70
2022-12-18T11:34:19.645Z,63.47
2022-12-18T11:36:47.939Z,63.62
2022-12-18T11:39:26.780Z,63.65
2022-12-18T11:42:15.517Z,63.75
2022-12-18T11:44:50.710Z,63.70
2022-12-18T11:47:30.675Z,63.88
2022-12-18T11:50:05.736Z,63.67
2022-12-18T11:52:40.785Z,63.83
2022-12-18T11:55:16.448Z,63.86
2022-12-18T11:57:58.123Z,64.33
2022-12-18T12:00:31.230Z,64.40
2022-12-18T12:03:29.558Z,64.31
2022-12-18T12:06:15.551Z,63.78
2022-12-18T12:08:59.367Z,63.53
2022-12-18T12:11:43.401Z,63.85
2022-12-18T12:14:44.602Z,63.91
2022-12-18T12:17:26.177Z,64.12
2022-12-18T12:20:06.284Z,64.00
2022-12-18T12:22:49.482Z,64.14
2022-12-18T12:25:40.497Z,63.86
2022-12-18T12:28:26.675Z,63.99
2022-12-18T12:31:08.263Z,63.85
2022-12-18T12:33:54.104Z,64.00
2022-12-18T12:36:35.681Z,64.03
2022-12-18T12:39:13.794Z,64.10
2022-12-18T12:42:06.641Z,63.93
2022-12-18T12:44:44.674Z,63.87
2022-12-18T12:47:20.286Z,63.99
2022-12-18T12:49:56.099Z,63.92
2022-12-18T12:52:35.391Z,63.91
2022-12-18T12:55:15.027Z,63.99
2022-12-18T12:58:09.766Z,64.03
2022-12-18T13:00:49.701Z,63.85
2022-12-18T13:03:31.589Z,63.65
2022-12-18T13:06:07.196Z,63.51
2022-12-18T13:08:58.611Z,63.55
2022-12-18T13:11:59.773Z,63.48
2022-12-18T13:14:34.881Z,63.50
2022-12-18T13:17:31.950Z,63.53
2022-12-18T13:20:14.493Z,63.56
2022-12-18T13:22:51.241Z,63.65
2022-12-18T13:25:40.261Z,63.61
2022-12-18T13:28:15.035Z,63.69
2022-12-18T13:30:55.383Z,63.74
2022-12-18T13:34:16.467Z,63.76
2022-12-18T13:36:38.121Z,63.71
2022-12-18T13:39:34.299Z,63.94
2022-12-18T13:43:00.244Z,63.87
2022-12-18T13:46:03.617Z,63.94
2022-12-18T13:48:38.958Z,63.88
2022-12-18T13:51:13.157Z,64.15
2022-12-18T13:53:50.778Z,64.20
2022-12-18T13:56:29.573Z,64.24
2022-12-18T13:59:22.894Z,64.24
2022-12-18T14:02:04.214Z,64.30
2022-12-18T14:04:38.131Z,64.41
2022-12-18T14:07:10.061Z,64.23
2022-12-18T14:09:47.075Z,64.39
2022-12-18T14:12:41.095Z,64.58
2022-12-18T14:15:30.057Z,64.49
2022-12-18T14:18:15.398Z,64.54
2022-12-18T14:20:54.632Z,64.48
2022-12-18T14:23:34.799Z,64.45
2022-12-18T14:26:29.995Z,64.66
2022-12-18T14:29:20.504Z,64.69
2022-12-18T14:32:17.461Z,64.58
2022-12-18T14:34:52.540Z,64.37
2022-12-18T14:37:26.702Z,64.62
2022-12-18T14:40:10.442Z,64.55
2022-12-18T14:42:44.219Z,64.37
2022-12-18T14:45:44.140Z,64.51
2022-12-18T14:48:23.101Z,64.26
2022-12-18T14:51:04.431Z,64.47
2022-12-18T14:53:46.293Z,64.60
2022-12-18T14:56:24.911Z,64.30
2022-12-18T14:58:58.912Z,64.55
2022-12-18T15:01:35.249Z,64.73
2022-12-18T15:04:28.387Z,64.43
2022-12-18T15:07:14.665Z,64.63
2022-12-18T15:10:13.358Z,64.58
2022-12-18T15:12:47.640Z,65.00
2022-12-18T15:15:51.762Z,65.07
2022-12-18T15:18:24.032Z,65.04
2022-12-18T15:20:57.932Z,65.30
2022-12-18T15:23:35.888Z,65.39
2022-12-18T15:26:11.433Z,65.38
2022-12-18T15:28:47.889Z,65.29
2022-12-18T15:31:33.074Z,65.33
2022-12-18T15:34:21.378Z,64.84
2022-12-18T15:36:53.932Z,65.07
2022-12-18T15:39:25.752Z,65.53
2022-12-18T15:42:15.256Z,65.33
2022-12-18T15:44:47.128Z,65.43
2022-12-18T15:47:18.799Z,65.41
2022-12-18T15:49:50.471Z,65.13
2022-12-18T15:52:28.171Z,65.19
2022-12-18T15:55:17.420Z,65.20
2022-12-18T15:57:49.019Z,65.21
2022-12-18T16:00:21.768Z,65.35
2022-12-18T16:02:53.634Z,65.14
2022-12-18T16:05:27.923Z,65.02
2022-12-18T16:07:59.695Z,65.14
2022-12-18T16:10:31.607Z,65.00
2022-12-18T16:13:03.389Z,65.00
2022-12-18T16:15:35.139Z,65.16
2022-12-18T16:18:07.171Z,64.73
2022-12-18T16:20:40.318Z,64.88
2022-12-18T16:23:12.110Z,64.37
2022-12-18T16:25:45.276Z,64.50
2022-12-18T16:28:16.913Z,64.37
2022-12-18T16:30:49.087Z,64.41
2022-12-18T16:33:20.804Z,64.21
2022-12-18T16:35:56.299Z,63.88
2022-12-18T16:38:28.063Z,63.96
2022-12-18T16:41:17.625Z,63.84
2022-12-18T16:43:54.664Z,63.47
2022-12-18T16:46:27.368Z,63.51
2022-12-18T16:49:00.571Z,63.39
2022-12-18T16:51:32.654Z,63.58
2022-12-18T16:54:09.657Z,63.46
2022-12-18T16:56:44.129Z,63.55
2022-12-18T16:59:15.764Z,63.30
2022-12-18T17:01:47.782Z,63.24
2022-12-18T17:04:19.662Z,63.27
2022-12-18T17:06:52.148Z,63.31
2022-12-18T17:09:26.372Z,63.25
2022-12-18T17:11:58.026Z,62.83
2022-12-18T17:14:29.765Z,63.10
2022-12-18T17:19:54.908Z,62.87
2022-12-18T17:22:26.834Z,62.82
2022-12-18T17:24:58.436Z,62.56
2022-12-18T17:27:30.081Z,62.44
2022-12-18T17:30:01.825Z,62.63
2022-12-18T17:32:33.423Z,62.49
2022-12-18T17:35:08.872Z,62.46
2022-12-18T17:37:40.764Z,62.68
2022-12-18T17:40:13.774Z,62.45
2022-12-18T17:42:45.457Z,62.42
2022-12-18T17:45:17.229Z,62.30
2022-12-18T17:47:48.871Z,62.45
2022-12-18T17:50:20.844Z,62.44
2022-12-18T17:52:56.443Z,62.30
2022-12-18T17:55:28.867Z,62.36
2022-12-18T17:58:00.842Z,62.21
2022-12-18T18:00:32.624Z,62.16
2022-12-18T18:03:04.567Z,62.10
2022-12-18T18:05:36.696Z,62.12
2022-12-18T18:08:09.391Z,62.21
2022-12-18T18:10:43.439Z,62.03
2022-12-18T18:13:46.389Z,61.89
2022-12-18T18:16:19.405Z,62.01
2022-12-18T18:18:52.208Z,62.07
2022-12-18T18:21:23.978Z,61.95
2022-12-18T18:23:55.559Z,61.97
2022-12-18T18:26:29.738Z,62.05
2022-12-18T18:29:03.989Z,62.00
2022-12-18T18:31:41.017Z,61.92
2022-12-18T18:34:18.154Z,62.02
2022-12-18T18:36:49.840Z,61.60
2022-12-18T18:39:22.144Z,61.74
2022-12-18T18:41:53.853Z,61.63
2022-12-18T18:44:26.457Z,61.53
2022-12-18T18:46:59.584Z,61.76
2022-12-18T18:49:32.263Z,61.59
2022-12-18T18:52:03.987Z,61.32
2022-12-18T18:54:35.949Z,61.30
2022-12-18T18:57:29.983Z,61.30
2022-12-18T18:59:59.961Z,61.06
2022-12-18T19:02:31.706Z,61.04
2022-12-18T19:05:03.937Z,61.16
2022-12-18T19:07:35.627Z,61.01
2022-12-18T19:10:09.267Z,60.93
2022-12-18T19:12:58.886Z,61.15
2022-12-18T19:15:30.689Z,61.30
2022-12-18T19:18:02.404Z,61.22
2022-12-18T19:20:35.183Z,61.25
2022-12-18T19:23:06.862Z,61.07
2022-12-18T19:25:41.798Z,61.17
2022-12-18T19:28:21.401Z,60.98
2022-12-18T19:30:59.223Z,60.75
2022-12-18T19:33:43.026Z,60.91
2022-12-18T19:36:22.594Z,60.73
2022-12-18T19:38:55.637Z,60.68
2022-12-18T19:41:31.137Z,60.68
2022-12-18T19:44:07.629Z,60.78
2022-12-18T19:46:41.864Z,60.52
2022-12-18T19:49:18.224Z,60.47
2022-12-18T19:51:50.334Z,60.52
2022-12-18T19:54:22.132Z,60.50
2022-12-18T19:56:53.748Z,60.50
2022-12-18T19:59:25.377Z,60.57
2022-12-18T20:01:57.251Z,60.50
2022-12-18T20:04:29.173Z,60.55
2022-12-18T20:07:00.862Z,60.05
2022-12-18T20:09:33.104Z,60.10
2022-12-18T20:12:05.870Z,60.11
2022-12-18T20:14:37.787Z,59.99
2022-12-18T20:17:09.607Z,60.12
2022-12-18T20:19:41.980Z,60.15
2022-12-18T20:22:14.071Z,60.11
2022-12-18T20:24:46.363Z,60.26
2022-12-18T20:27:23.760Z,60.21
2022-12-18T20:29:55.888Z,60.16
2022-12-18T20:32:35.406Z,60.02
2022-12-18T20:35:10.368Z,59.92
2022-12-18T20:37:43.795Z,59.79
2022-12-18T20:40:42.144Z,59.64
2022-12-18T20:43:17.302Z,59.75
2022-12-18T20:45:49.251Z,59.68
2022-12-18T20:48:26.365Z,59.64
2022-12-18T20:51:03.847Z,59.78
2022-12-18T20:53:36.836Z,59.91
2022-12-18T20:56:12.727Z,59.90
2022-12-18T20:58:46.012Z,59.65
2022-12-18T21:01:21.137Z,59.65
2022-12-18T21:03:54.071Z,59.73
2022-12-18T21:06:25.957Z,59.67
2022-12-18T21:08:57.615Z,59.63
2022-12-18T21:11:49.891Z,59.71
2022-12-18T21:14:24.050Z,59.64
2022-12-18T21:17:02.010Z,59.53
2022-12-18T21:19:34.027Z,59.50
2022-12-18T21:22:06.140Z,59.43
2022-12-18T21:24:37.976Z,59.51
2022-12-18T21:27:09.897Z,59.50
2022-12-18T21:29:46.993Z,59.31
2022-12-18T21:32:18.849Z,59.30
2022-12-18T21:34:52.252Z,59.17
2022-12-18T21:37:23.997Z,59.25
2022-12-18T21:39:55.654Z,59.17
2022-12-18T21:42:44.148Z,59.05
2022-12-18T21:45:15.739Z,59.06
2022-12-18T21:47:47.520Z,59.11
2022-12-18T21:50:19.589Z,59.04
2022-12-18T21:52:51.452Z,58.95
2022-12-18T21:55:23.155Z,58.95
2022-12-18T21:57:56.409Z,58.85
2022-12-18T22:00:28.118Z,58.85
2022-12-18T22:03:17.547Z,59.03
2022-12-18T22:05:53.317Z,59.17
2022-12-18T22:08:39.845Z,58.85
2022-12-18T22:11:15.492Z,58.81
2022-12-18T22:13:49.066Z,58.87
2022-12-18T22:16:23.147Z,58.82
2022-12-18T22:18:55.904Z,58.79
2022-12-18T22:21:30.346Z,58.74
2022-12-18T22:24:03.454Z,58.88
2022-12-18T22:26:39.435Z,58.81
2022-12-18T22:29:35.275Z,58.68
2022-12-18T22:32:10.370Z,58.58
2022-12-18T22:34:43.740Z,58.86
2022-12-18T22:37:17.592Z,58.52
2022-12-18T22:39:49.210Z,58.76
2022-12-18T22:42:21.610Z,58.37
2022-12-18T22:44:53.192Z,58.63
2022-12-18T22:47:29.358Z,58.55
2022-12-18T22:50:03.079Z,58.55
2022-12-18T22:52:34.897Z,58.38
2022-12-18T22:55:07.871Z,58.46
2022-12-18T22:57:41.168Z,58.62
2022-12-18T23:00:23.940Z,58.49
2022-12-18T23:03:00.641Z,58.61
2022-12-18T23:05:34.273Z,58.54
2022-12-18T23:08:06.306Z,58.58
2022-12-18T23:10:40.741Z,58.38
2022-12-18T23:13:12.409Z,58.40
2022-12-18T23:15:45.281Z,58.23
2022-12-18T23:18:17.788Z,58.28
2022-12-18T23:20:50.541Z,58.34
2022-12-18T23:23:23.365Z,58.14
2022-12-18T23:26:03.106Z,58.32
2022-12-18T23:28:36.722Z,58.30
2022-12-18T23:31:12.750Z,58.22
2022-12-18T23:33:48.185Z,58.22
2022-12-18T23:36:23.108Z,58.38
2022-12-18T23:38:57.370Z,58.20
2022-12-18T23:41:32.383Z,58.25
2022-12-18T23:44:04.008Z,58.22
2022-12-18T23:46:37.549Z,58.26
2022-12-18T23:49:09.387Z,58.07
2022-12-18T23:51:43.831Z,58.23
2022-12-18T23:54:15.734Z,58.32
2022-12-18T23:56:47.398Z,58.09
2022-12-18T23:59:23.953Z,58.21
